Monday, October 16, 2017, 11:43 PM EDT
Back to Local

KLBE, Latrobe / Westmorland

Location: Latrobe, PA, United States Lat: 40.283
Local Time: 11:43 PM EDT ( 3:43 GMT) Lon: -79.4
Time Zone: US/Eastern Elev: 1184 ft

Show me the last for .
Show Decoded

2017-10-16 23:15 METAR KLBE 170315Z AUTO 00000KT 10SM CLR 04/03 A3031 RMK AO2 =
2017-10-16 22:55 METAR KLBE 170255Z AUTO 00000KT 10SM CLR 04/03 A3031 RMK AO2 =
2017-10-16 22:35 METAR KLBE 170235Z AUTO 00000KT 10SM CLR 05/03 A3031 RMK AO2 =
2017-10-16 22:15 METAR KLBE 170215Z AUTO 00000KT 10SM CLR 06/03 A3030 RMK AO2 =
2017-10-16 21:45 METAR KLBE 170145Z 00000KT 10SM SKC 07/02 A3029 =
2017-10-16 20:45 METAR KLBE 170045Z 34005KT 10SM FEW060 08/02 A3027 =
2017-10-16 19:45 METAR KLBE 162345Z 33005KT 10SM SCT080 10/02 A3026 =
2017-10-16 18:45 METAR KLBE 162245Z 31005KT 10SM SCT080 10/00 A3024 =
2017-10-16 17:57 METAR KLBE 162157Z 31007KT 10SM SCT080 12/01 A3022 =
2017-10-16 16:45 METAR KLBE 162045Z 29010 10SM SCT080 13/00 A3021 =
2017-10-16 15:45 METAR KLBE 161945Z 30010KT 10SM FEW050 13/00 A3021 =
2017-10-16 14:55 METAR KLBE 161855Z 30014KT 10SM SCT050 13/02 A3021 =
2017-10-16 13:50 METAR KLBE 161750Z 35010KT 10SM BKN050 12/03 A3022 =
2017-10-16 12:50 METAR KLBE 161650Z 34015KT 10SM BKN045 12/03 A3023 =
2017-10-16 11:50 METAR KLBE 161550Z 34015KT 10SM BKN039 11/03 A3022 =
2017-10-16 10:50 METAR KLBE 161450Z 36015KT 10SM BKN035 12/04 A3021 =
2017-10-16 09:45 METAR KLBE 161345Z 32005KT 10SM BKN046 09/05 A3020 =
2017-10-16 08:45 METAR KLBE 161245Z 32005KT 10SM BKN042 09/04 A3019 =
2017-10-16 07:45 METAR KLBE 161145Z 33005KT 10SM SCT044 08/04 A3016 =
2017-10-16 06:45 METAR KLBE 161045Z 32007KT 10SM OVC048 09/05 A3013 =
2017-10-16 05:55 METAR KLBE 160955Z AUTO 32009KT 10SM FEW021 OVC050 10/05 A3011 RMK AO2 =
2017-10-16 05:35 METAR KLBE 160935Z AUTO 31007KT 10SM FEW021 SCT027 OVC050 10/07 A3011 RMK AO2 =
2017-10-16 05:15 METAR KLBE 160915Z AUTO 33007KT 10SM FEW021 SCT046 OVC050 10/07 A3010 RMK AO2 =
2017-10-16 04:55 METAR KLBE 160855Z AUTO 32009KT 270V330 10SM SCT021 BKN048 OVC050 10/08 A3009
                 RMK AO2 =
2017-10-16 04:35 METAR KLBE 160835Z AUTO 29005KT 10SM OVC050 10/08 A3009 RMK AO2 =
2017-10-16 04:15 METAR KLBE 160815Z AUTO 32007KT 10SM OVC050 10/08 A3008 RMK AO2 =
2017-10-16 03:55 METAR KLBE 160755Z AUTO 31008G14KT 10SM FEW038 OVC047 10/08 A3008 RMK AO2 =
2017-10-16 03:35 METAR KLBE 160735Z AUTO 30010KT 10SM SCT026 BKN038 OVC050 11/08 A3008 RMK AO2 =
2017-10-16 03:15 METAR KLBE 160715Z AUTO 32010KT 10SM SCT020 OVC026 12/08 A3007 RMK AO2 =
2017-10-16 02:55 METAR KLBE 160655Z AUTO 30006KT 10SM -RA BKN022 BKN029 OVC037 12/10 A3007 RMK
                 AO2 =
2017-10-16 02:35 METAR KLBE 160635Z AUTO 25007KT 10SM FEW025 SCT029 OVC036 12/10 A3006 RMK AO2 =
2017-10-16 02:15 METAR KLBE 160615Z AUTO 25006KT 10SM SCT026 BKN036 OVC055 12/10 A3006 RMK AO2 =
2017-10-16 01:55 METAR KLBE 160555Z AUTO 25007KT 10SM SCT028 SCT032 OVC055 13/10 A3006 RMK AO2 =
2017-10-16 01:35 METAR KLBE 160535Z AUTO 26006KT 10SM FEW023 SCT032 BKN050 13/10 A3005 RMK AO2 =
2017-10-16 01:15 METAR KLBE 160515Z AUTO 25010KT 10SM FEW023 SCT029 BKN050 13/10 A3004 RMK AO2 =
2017-10-16 00:55 METAR KLBE 160455Z AUTO 27006KT 10SM FEW037 BKN050 13/10 A3004 RMK AO2 =
2017-10-16 00:35 METAR KLBE 160435Z AUTO 28005KT 10SM FEW031 SCT050 13/10 A3003 RMK AO2 =
2017-10-16 00:15 METAR KLBE 160415Z AUTO 28006KT 10SM FEW032 BKN050 13/10 A3003 RMK AO2 =
2017-10-15 23:55 METAR KLBE 160355Z AUTO 28006KT 10SM FEW032 SCT048 BKN085 14/10 A3002 RMK AO2 =

Support USWX by starting your Amazon purchase here.